createdAt,value
2022-10-24T00:01:58.636Z,16.36
2022-10-24T00:06:00.050Z,16.55
2022-10-24T00:10:01.513Z,16.91
2022-10-24T00:14:03.655Z,16.51
2022-10-24T00:18:05.357Z,16.64
2022-10-24T00:22:06.769Z,16.90
2022-10-24T00:26:08.389Z,16.84
2022-10-24T00:30:10.267Z,17.07
2022-10-24T00:34:11.900Z,16.64
2022-10-24T00:38:13.598Z,17.04
2022-10-24T00:42:15.076Z,17.07
2022-10-24T00:46:17.995Z,17.05
2022-10-24T00:50:19.419Z,16.76
2022-10-24T00:54:21.246Z,17.03
2022-10-24T00:58:27.454Z,16.92
2022-10-24T01:02:28.884Z,16.75
2022-10-24T01:07:02.588Z,16.92
2022-10-24T01:11:16.481Z,16.95
2022-10-24T01:15:24.747Z,16.77
2022-10-24T01:19:49.714Z,16.87
2022-10-24T01:24:02.672Z,16.89
2022-10-24T01:28:11.853Z,16.61
2022-10-24T01:32:26.192Z,16.63
2022-10-24T01:36:37.474Z,16.74
2022-10-24T01:40:53.700Z,16.72
2022-10-24T01:44:57.635Z,16.62
2022-10-24T01:49:02.782Z,16.30
2022-10-24T01:53:05.357Z,16.10
2022-10-24T01:57:07.558Z,16.00
2022-10-24T02:01:16.075Z,16.14
2022-10-24T02:05:34.118Z,16.08
2022-10-24T02:09:38.400Z,16.29
2022-10-24T02:13:51.809Z,16.18
2022-10-24T02:17:54.734Z,16.02
2022-10-24T02:22:21.618Z,15.87
2022-10-24T02:26:52.223Z,16.29
2022-10-24T02:30:59.546Z,16.19
2022-10-24T02:35:03.717Z,15.98
2022-10-24T02:39:08.243Z,16.01
2022-10-24T02:43:12.616Z,16.22
2022-10-24T02:47:15.272Z,16.30
2022-10-24T02:51:18.117Z,16.28
2022-10-24T02:55:19.651Z,16.18
2022-10-24T02:59:21.117Z,16.32
2022-10-24T03:03:22.536Z,16.22
2022-10-24T03:07:24.183Z,16.02
2022-10-24T03:11:27.736Z,16.34
2022-10-24T03:15:29.500Z,16.30
2022-10-24T03:19:30.917Z,16.63
2022-10-24T03:23:32.469Z,16.67
2022-10-24T03:27:34.540Z,16.49
2022-10-24T03:31:36.437Z,16.40
2022-10-24T03:35:38.228Z,16.51
2022-10-24T03:39:39.640Z,16.52
2022-10-24T03:43:41.052Z,16.64
2022-10-24T03:47:42.461Z,16.38
2022-10-24T03:51:43.871Z,16.22
2022-10-24T03:55:45.303Z,16.18
2022-10-24T03:59:46.767Z,16.36
2022-10-24T04:03:48.170Z,16.27
2022-10-24T04:07:49.638Z,15.95
2022-10-24T04:11:53.532Z,16.01
2022-10-24T04:15:54.972Z,16.18
2022-10-24T04:19:56.393Z,16.22
2022-10-24T04:23:58.195Z,16.05
2022-10-24T04:27:59.614Z,15.96
2022-10-24T04:32:01.385Z,15.94
2022-10-24T04:36:03.005Z,15.66
2022-10-24T04:40:04.856Z,15.47
2022-10-24T04:44:06.293Z,15.57
2022-10-24T04:48:07.854Z,15.78
2022-10-24T04:52:09.302Z,15.83
2022-10-24T04:56:10.891Z,15.66
2022-10-24T05:00:12.835Z,15.75
2022-10-24T05:04:14.485Z,15.62
2022-10-24T05:08:17.623Z,15.59
2022-10-24T05:16:25.557Z,15.80
2022-10-24T05:20:27.171Z,15.54
2022-10-24T05:24:30.048Z,15.40
2022-10-24T05:28:31.485Z,15.32
2022-10-24T05:32:34.864Z,15.23
2022-10-24T05:36:38.739Z,15.55
2022-10-24T05:40:40.146Z,15.65
2022-10-24T05:44:41.651Z,15.46
2022-10-24T05:48:43.140Z,15.35
2022-10-24T05:52:47.155Z,15.24
2022-10-24T05:56:48.856Z,15.56
2022-10-24T06:00:54.053Z,15.63
2022-10-24T06:04:57.001Z,15.48
2022-10-24T06:08:58.444Z,15.31
2022-10-24T06:12:59.917Z,15.29
2022-10-24T06:17:01.475Z,15.00
2022-10-24T06:21:04.802Z,15.15
2022-10-24T06:25:06.419Z,15.10
2022-10-24T06:29:07.905Z,15.23
2022-10-24T06:33:09.923Z,15.30
2022-10-24T06:37:11.406Z,15.51
2022-10-24T06:41:13.874Z,15.40
2022-10-24T06:45:15.783Z,15.39
2022-10-24T06:49:17.659Z,15.52
2022-10-24T06:57:25.540Z,15.52
2022-10-24T07:01:27.753Z,15.68
2022-10-24T07:05:29.261Z,15.30
2022-10-24T07:09:30.723Z,15.57
2022-10-24T07:13:32.323Z,15.46
2022-10-24T07:17:39.814Z,15.47
2022-10-24T07:21:41.487Z,15.30
2022-10-24T07:25:42.958Z,15.50
2022-10-24T07:29:44.573Z,15.55
2022-10-24T07:33:46.061Z,15.48
2022-10-24T07:37:47.672Z,16.06
2022-10-24T07:41:49.289Z,15.91
2022-10-24T07:45:52.041Z,15.82
2022-10-24T07:49:53.819Z,16.25
2022-10-24T07:53:57.575Z,16.40
2022-10-24T07:57:58.971Z,16.59
2022-10-24T08:02:00.363Z,16.67
2022-10-24T08:06:05.839Z,16.74
2022-10-24T08:10:10.299Z,16.60
2022-10-24T08:14:11.951Z,16.46
2022-10-24T08:18:13.436Z,16.67
2022-10-24T08:22:15.295Z,16.70
2022-10-24T08:26:19.708Z,16.56
2022-10-24T08:30:21.839Z,16.82
2022-10-24T08:34:23.535Z,16.85
2022-10-24T08:38:25.449Z,16.96
2022-10-24T08:42:26.892Z,16.89
2022-10-24T08:46:55.640Z,16.86
2022-10-24T08:51:07.263Z,17.16
2022-10-24T08:55:48.266Z,16.95
2022-10-24T08:59:38.429Z,17.21
2022-10-24T09:03:57.968Z,17.80
2022-10-24T09:08:10.475Z,17.88
2022-10-24T09:12:14.962Z,18.12
2022-10-24T09:16:22.553Z,18.31
2022-10-24T09:20:30.339Z,18.16
2022-10-24T09:24:51.115Z,18.40
2022-10-24T09:28:55.020Z,18.66
2022-10-24T09:32:59.339Z,18.57
2022-10-24T09:37:00.800Z,18.69
2022-10-24T09:41:06.366Z,18.55
2022-10-24T09:45:27.898Z,18.73
2022-10-24T09:49:35.741Z,18.83
2022-10-24T09:53:59.307Z,18.97
2022-10-24T09:58:05.193Z,18.99
2022-10-24T10:02:24.043Z,19.29
2022-10-24T10:06:25.604Z,19.73
2022-10-24T10:10:34.202Z,19.71
2022-10-24T10:14:41.048Z,19.79
2022-10-24T10:18:46.306Z,19.50
2022-10-24T10:22:47.748Z,19.76
2022-10-24T10:26:49.167Z,19.76
2022-10-24T10:30:56.348Z,19.99
2022-10-24T10:35:11.353Z,20.33
2022-10-24T10:39:21.309Z,20.37
2022-10-24T10:43:48.072Z,20.48
2022-10-24T10:48:09.345Z,20.31
2022-10-24T10:52:29.650Z,20.79
2022-10-24T10:56:45.444Z,21.20
2022-10-24T11:01:08.720Z,20.50
2022-10-24T11:05:32.434Z,20.97
2022-10-24T11:09:39.482Z,20.83
2022-10-24T11:13:48.051Z,20.55
2022-10-24T11:18:00.627Z,20.48
2022-10-24T11:22:04.925Z,20.69
2022-10-24T11:26:31.205Z,20.95
2022-10-24T11:31:01.031Z,21.20
2022-10-24T11:35:27.868Z,21.24
2022-10-24T11:39:36.357Z,21.45
2022-10-24T11:43:44.163Z,21.25
2022-10-24T11:48:11.650Z,21.19
2022-10-24T11:52:22.971Z,21.19
2022-10-24T11:56:47.038Z,21.69
2022-10-24T12:00:51.585Z,21.69
2022-10-24T12:05:00.580Z,21.56
2022-10-24T12:09:14.491Z,21.52
2022-10-24T12:13:40.359Z,21.28
2022-10-24T12:17:57.092Z,21.46
2022-10-24T12:22:02.105Z,21.55
2022-10-24T12:26:27.260Z,21.23
2022-10-24T12:30:32.235Z,21.56
2022-10-24T12:34:48.910Z,21.64
2022-10-24T12:38:56.820Z,21.45
2022-10-24T12:42:58.194Z,21.27
2022-10-24T12:47:01.702Z,21.50
2022-10-24T12:51:06.087Z,21.37
2022-10-24T12:55:39.368Z,20.84
2022-10-24T12:59:51.402Z,20.92
2022-10-24T13:04:07.828Z,20.71
2022-10-24T13:08:42.848Z,21.06
2022-10-24T13:13:25.241Z,20.97
2022-10-24T13:17:40.803Z,20.70
2022-10-24T13:21:57.517Z,20.90
2022-10-24T13:25:59.866Z,21.18
2022-10-24T13:30:04.843Z,21.03
2022-10-24T13:34:50.773Z,21.12
2022-10-24T13:38:56.166Z,21.09
2022-10-24T13:43:07.461Z,20.95
2022-10-24T13:47:18.845Z,21.13
2022-10-24T13:51:26.879Z,21.16
2022-10-24T13:55:42.262Z,20.88
2022-10-24T13:59:43.724Z,21.21
2022-10-24T14:03:48.013Z,20.90
2022-10-24T14:07:49.839Z,20.65
2022-10-24T14:11:51.388Z,20.53
2022-10-24T14:16:01.660Z,20.38
2022-10-24T14:20:09.599Z,20.59
2022-10-24T14:24:15.400Z,20.76
2022-10-24T14:28:20.493Z,20.75
2022-10-24T14:32:22.487Z,20.30
2022-10-24T14:36:27.597Z,20.35
2022-10-24T14:40:30.809Z,20.47
2022-10-24T14:44:35.009Z,20.06
2022-10-24T14:48:43.566Z,19.21
2022-10-24T14:52:45.522Z,19.07
2022-10-24T14:56:48.118Z,18.94
2022-10-24T15:00:49.776Z,19.08
2022-10-24T15:04:52.947Z,18.90
2022-10-24T15:09:04.901Z,18.94
2022-10-24T15:13:21.455Z,18.97
2022-10-24T15:17:32.425Z,18.70
2022-10-24T15:21:38.875Z,18.42
2022-10-24T15:25:42.934Z,18.44
2022-10-24T15:29:44.650Z,18.64
2022-10-24T15:33:47.627Z,18.60
2022-10-24T15:38:12.530Z,18.56
2022-10-24T15:42:15.577Z,18.66
2022-10-24T15:46:19.278Z,18.60
2022-10-24T15:50:24.165Z,18.56
2022-10-24T15:54:29.266Z,18.62
2022-10-24T15:58:30.688Z,18.72
2022-10-24T16:02:32.192Z,18.85
2022-10-24T16:06:34.707Z,18.69
2022-10-24T16:10:36.124Z,18.83
2022-10-24T16:14:37.555Z,18.64
2022-10-24T16:18:39.124Z,18.52
2022-10-24T16:22:41.787Z,18.55
2022-10-24T16:26:43.286Z,18.49
2022-10-24T16:30:45.279Z,18.28
2022-10-24T16:34:48.908Z,18.33
2022-10-24T16:38:50.435Z,18.30
2022-10-24T16:42:53.233Z,18.63
2022-10-24T16:46:54.659Z,18.19
2022-10-24T16:50:56.104Z,17.95
2022-10-24T16:54:57.604Z,18.32
2022-10-24T16:58:59.048Z,18.11
2022-10-24T17:03:00.513Z,18.11
2022-10-24T17:07:04.264Z,18.29
2022-10-24T17:11:20.204Z,18.13
2022-10-24T17:15:27.469Z,18.03
2022-10-24T17:19:29.177Z,18.10
2022-10-24T17:23:30.744Z,18.00
2022-10-24T17:27:32.372Z,18.11
2022-10-24T17:31:35.017Z,18.17
2022-10-24T17:35:40.436Z,18.08
2022-10-24T17:39:49.287Z,18.05
2022-10-24T17:43:51.360Z,18.17
2022-10-24T17:47:53.409Z,17.96
2022-10-24T17:51:54.872Z,17.71
2022-10-24T17:55:56.276Z,17.91
2022-10-24T17:59:57.655Z,17.79
2022-10-24T18:03:59.063Z,17.81
2022-10-24T18:08:00.495Z,17.50
2022-10-24T18:12:02.754Z,17.47
2022-10-24T18:16:11.926Z,17.40
2022-10-24T18:20:15.498Z,17.35
2022-10-24T18:24:16.957Z,17.25
2022-10-24T18:28:18.639Z,17.05
2022-10-24T18:32:20.646Z,17.14
2022-10-24T18:36:24.632Z,17.08
2022-10-24T18:40:26.261Z,17.16
2022-10-24T18:44:30.868Z,17.08
2022-10-24T18:48:32.708Z,17.26
2022-10-24T18:52:48.919Z,17.26
2022-10-24T18:56:50.628Z,17.50
2022-10-24T19:00:54.250Z,17.38
2022-10-24T19:05:06.992Z,17.44
2022-10-24T19:09:19.771Z,17.20
2022-10-24T19:13:26.012Z,17.35
2022-10-24T19:17:27.512Z,17.01
2022-10-24T19:21:29.048Z,17.09
2022-10-24T19:25:31.643Z,16.95
2022-10-24T19:29:33.052Z,16.90
2022-10-24T19:33:34.663Z,17.01
2022-10-24T19:37:37.051Z,16.99
2022-10-24T19:41:38.522Z,17.10
2022-10-24T19:45:49.794Z,17.21
2022-10-24T19:49:56.670Z,16.92
2022-10-24T19:53:58.306Z,17.10
2022-10-24T19:57:59.711Z,17.22
2022-10-24T20:02:01.238Z,17.25
2022-10-24T20:06:02.897Z,17.25
2022-10-24T20:10:04.870Z,17.30
2022-10-24T20:14:06.674Z,17.08
2022-10-24T20:18:08.176Z,17.12
2022-10-24T20:22:09.587Z,17.06
2022-10-24T20:26:14.784Z,17.02
2022-10-24T20:30:16.286Z,17.00
2022-10-24T20:34:17.768Z,16.94
2022-10-24T20:38:19.279Z,16.80
2022-10-24T20:42:22.184Z,16.88
2022-10-24T20:46:23.976Z,16.66
2022-10-24T20:50:25.431Z,16.65
2022-10-24T20:54:26.868Z,16.61
2022-10-24T20:58:28.271Z,16.44
2022-10-24T21:02:29.843Z,16.60
2022-10-24T21:06:33.251Z,16.62
2022-10-24T21:10:34.654Z,16.40
2022-10-24T21:14:36.138Z,16.36
2022-10-24T21:18:37.965Z,16.59
2022-10-24T21:22:39.549Z,16.54
2022-10-24T21:26:41.500Z,16.59
2022-10-24T21:30:42.891Z,16.67
2022-10-24T21:34:44.311Z,16.31
2022-10-24T21:38:47.008Z,16.16
2022-10-24T21:42:48.889Z,16.22
2022-10-24T21:46:51.862Z,16.21
2022-10-24T21:50:53.279Z,16.10
2022-10-24T21:54:54.879Z,16.08
2022-10-24T22:03:07.992Z,16.12
2022-10-24T22:07:09.387Z,16.02
2022-10-24T22:11:14.187Z,15.96
2022-10-24T22:15:15.881Z,16.17
2022-10-24T22:19:19.616Z,15.99
2022-10-24T22:23:21.105Z,16.09
2022-10-24T22:27:22.487Z,15.97
2022-10-24T22:31:26.103Z,15.95
2022-10-24T22:35:27.819Z,15.94
2022-10-24T22:39:29.585Z,15.79
2022-10-24T22:43:31.311Z,15.90
2022-10-24T22:47:52.271Z,15.91
2022-10-24T22:51:53.965Z,16.04
2022-10-24T22:56:15.013Z,16.00
2022-10-24T23:00:17.143Z,15.99
2022-10-24T23:04:50.917Z,15.90
2022-10-24T23:08:52.318Z,16.08
2022-10-24T23:12:54.118Z,16.11
2022-10-24T23:16:58.754Z,15.86
2022-10-24T23:21:21.488Z,15.90
2022-10-24T23:25:23.290Z,15.99
2022-10-24T23:29:30.484Z,16.07
2022-10-24T23:33:32.179Z,16.01
2022-10-24T23:37:46.307Z,16.03
2022-10-24T23:41:48.035Z,15.97
2022-10-24T23:45:59.263Z,16.08
2022-10-24T23:50:10.000Z,15.99
2022-10-24T23:54:13.126Z,15.82
2022-10-24T23:58:14.569Z,16.00
